Time;durP1;ratioP1;P1;durP2;ratioP2;P2;SDS_P1;SDS_P2;PMS_P1;PMS_P2;Temp;Humidity;BMP_temperature;BMP_pressure;BME280_temperature;BME280_humidity;BME280_pressure;Samples;Min_cycle;Max_cycle;Signal;HPM_P1;HPM_P2
2023/10/11 00:00:58;;;;;;;29.13;12.90;;;;;;;;;;5077778;28;20032;-68
2023/10/11 00:05:53;;;;;;;35.75;14.45;;;;;;;;;;5078073;28;20040;-68
2023/10/11 00:08:25;;;;;;;31.23;13.75;;;;;;;;;;5077530;28;20035;-69
2023/10/11 00:10:53;;;;;;;31.67;14.35;;;;;;;;;;5061008;28;21763;-68
2023/10/11 00:13:20;;;;;;;29.00;14.63;;;;;;;;;;5078490;28;21324;-68
2023/10/11 00:15:50;;;;;;;27.65;13.50;;;;;;;;;;5077538;28;20055;-69
2023/10/11 00:18:17;;;;;;;32.45;13.05;;;;;;;;;;5076582;28;20055;-69
2023/10/11 00:23:11;;;;;;;28.70;13.02;;;;;;;;;;5076522;28;20043;-68
2023/10/11 00:25:39;;;;;;;40.28;14.68;;;;;;;;;;5076359;28;20040;-68
2023/10/11 00:28:08;;;;;;;30.88;13.43;;;;;;;;;;5076338;28;20047;-68
2023/10/11 00:30:38;;;;;;;27.17;13.70;;;;;;;;;;5078061;28;20038;-68
2023/10/11 00:33:04;;;;;;;28.58;14.30;;;;;;;;;;5077142;28;20036;-69
2023/10/11 00:35:32;;;;;;;31.77;13.35;;;;;;;;;;5077614;28;20642;-68
2023/10/11 00:38:00;;;;;;;29.85;13.65;;;;;;;;;;5078836;28;20110;-68
2023/10/11 00:40:32;;;;;;;30.83;13.98;;;;;;;;;;5080846;28;20020;-68
2023/10/11 00:42:59;;;;;;;32.58;13.75;;;;;;;;;;5080407;28;20066;-68
2023/10/11 00:45:26;;;;;;;40.75;13.63;;;;;;;;;;5079150;28;20035;-69
2023/10/11 00:47:56;;;;;;;30.83;13.27;;;;;;;;;;5067480;28;20421;-68
2023/10/11 00:50:22;;;;;;;30.67;13.27;;;;;;;;;;5078405;28;20036;-68
2023/10/11 00:52:50;;;;;;;31.33;13.27;;;;;;;;;;5081675;28;20019;-68
2023/10/11 00:55:21;;;;;;;28.45;14.30;;;;;;;;;;5081021;28;20059;-68
2023/10/11 00:57:48;;;;;;;30.42;14.35;;;;;;;;;;5080317;28;20216;-69
2023/10/11 01:00:21;;;;;;;27.60;13.38;;;;;;;;;;5068859;28;20023;-69
2023/10/11 01:02:47;;;;;;;29.58;13.85;;;;;;;;;;5081054;28;20028;-69
2023/10/11 01:05:14;;;;;;;30.20;13.18;;;;;;;;;;5080176;28;20036;-68
2023/10/11 01:07:40;;;;;;;28.02;13.20;;;;;;;;;;5080153;28;20280;-69
2023/10/11 01:10:07;;;;;;;31.08;13.68;;;;;;;;;;5080068;28;21877;-69
2023/10/11 01:12:34;;;;;;;28.40;12.20;;;;;;;;;;5063759;28;20392;-68
2023/10/11 01:15:00;;;;;;;35.25;13.63;;;;;;;;;;5080680;28;20069;-69
2023/10/11 01:17:26;;;;;;;29.33;14.45;;;;;;;;;;5060041;28;21784;-68
2023/10/11 01:19:53;;;;;;;36.85;13.98;;;;;;;;;;5080228;28;20059;-69
2023/10/11 01:22:19;;;;;;;30.88;12.65;;;;;;;;;;5080659;28;20043;-69
2023/10/11 01:24:47;;;;;;;29.08;11.82;;;;;;;;;;5080750;28;20533;-68
2023/10/11 01:27:17;;;;;;;31.95;14.00;;;;;;;;;;5080352;28;20043;-68
2023/10/11 01:29:43;;;;;;;37.90;13.60;;;;;;;;;;5079753;28;20115;-68
2023/10/11 01:32:10;;;;;;;27.90;14.02;;;;;;;;;;5081099;28;20036;-69
2023/10/11 01:34:36;;;;;;;34.90;13.98;;;;;;;;;;5078631;28;20849;-68
2023/10/11 01:37:02;;;;;;;37.63;14.30;;;;;;;;;;5079283;28;20438;-68
2023/10/11 01:39:32;;;;;;;34.65;12.63;;;;;;;;;;5080193;28;20034;-68
2023/10/11 01:41:58;;;;;;;32.95;14.02;;;;;;;;;;5061433;28;20046;-68
2023/10/11 01:44:25;;;;;;;28.25;13.00;;;;;;;;;;5080824;28;20474;-68
2023/10/11 01:46:51;;;;;;;33.58;12.90;;;;;;;;;;5080174;28;20494;-68
2023/10/11 01:49:17;;;;;;;36.13;13.00;;;;;;;;;;5080098;28;20032;-68
2023/10/11 01:51:46;;;;;;;31.23;14.10;;;;;;;;;;5078849;28;20028;-68
2023/10/11 01:54:15;;;;;;;29.02;12.55;;;;;;;;;;5079780;28;20083;-69
2023/10/11 01:56:41;;;;;;;27.95;13.02;;;;;;;;;;5079121;28;20027;-68
2023/10/11 01:59:09;;;;;;;31.15;12.82;;;;;;;;;;5079573;28;20459;-68
2023/10/11 02:01:41;;;;;;;32.55;12.88;;;;;;;;;;5080165;28;20037;-69
2023/10/11 02:04:17;;;;;;;28.88;12.40;;;;;;;;;;5079100;28;20035;-68
2023/10/11 02:06:44;;;;;;;36.78;13.10;;;;;;;;;;5078971;28;21731;-69
2023/10/11 02:09:11;;;;;;;32.75;13.30;;;;;;;;;;5062655;28;20028;-68
2023/10/11 02:11:41;;;;;;;28.35;12.50;;;;;;;;;;5079745;28;20382;-68
2023/10/11 02:14:07;;;;;;;28.05;12.05;;;;;;;;;;5079336;28;20031;-69
2023/10/11 02:16:34;;;;;;;27.80;12.27;;;;;;;;;;5079177;28;20032;-68
2023/10/11 02:19:00;;;;;;;28.13;12.52;;;;;;;;;;5079581;28;20062;-68
2023/10/11 02:21:27;;;;;;;31.98;13.35;;;;;;;;;;5078013;28;20051;-69
2023/10/11 02:23:56;;;;;;;31.85;12.43;;;;;;;;;;5079109;28;20059;-68
2023/10/11 02:26:29;;;;;;;34.90;13.07;;;;;;;;;;5079128;28;20059;-68
2023/10/11 02:29:00;;;;;;;;;;;;;;;;;;5080382;28;20270;-69
2023/10/11 02:31:27;;;;;;;31.17;11.82;;;;;;;;;;5078349;28;19920;-69
2023/10/11 02:34:04;;;;;;;28.50;11.57;;;;;;;;;;5079669;28;20023;-68
2023/10/11 02:36:35;;;;;;;29.15;11.95;;;;;;;;;;5079097;28;20025;-68
2023/10/11 02:39:06;;;;;;;29.58;11.60;;;;;;;;;;5078402;28;20073;-69
2023/10/11 02:41:32;;;;;;;30.58;12.32;;;;;;;;;;5078680;28;20032;-69
2023/10/11 02:43:58;;;;;;;27.50;11.05;;;;;;;;;;5078968;28;20032;-68
2023/10/11 02:46:25;;;;;;;31.55;11.20;;;;;;;;;;5079789;28;20435;-68
2023/10/11 02:49:05;;;;;;;25.98;11.70;;;;;;;;;;5078359;28;20028;-68
2023/10/11 02:51:33;;;;;;;36.42;12.15;;;;;;;;;;5078634;28;20040;-68
2023/10/11 02:54:04;;;;;;;23.77;10.50;;;;;;;;;;5078957;28;20034;-69
2023/10/11 02:56:30;;;;;;;25.88;10.80;;;;;;;;;;5078638;28;20034;-69
2023/10/11 02:58:56;;;;;;;28.85;11.98;;;;;;;;;;5077495;28;21461;-69
2023/10/11 03:01:22;;;;;;;31.17;11.55;;;;;;;;;;5076377;28;20793;-69
2023/10/11 03:03:48;;;;;;;29.88;11.82;;;;;;;;;;5077280;28;20154;-68
2023/10/11 03:06:15;;;;;;;26.27;11.93;;;;;;;;;;5077088;28;20031;-68
2023/10/11 03:08:41;;;;;;;23.98;11.45;;;;;;;;;;5076902;28;20043;-68
2023/10/11 03:11:15;;;;;;;28.60;11.80;;;;;;;;;;5060514;28;20039;-69
2023/10/11 03:13:44;;;;;;;28.67;11.73;;;;;;;;;;5077966;28;20035;-69
2023/10/11 03:16:12;;;;;;;29.88;12.20;;;;;;;;;;5078781;28;20498;-69
2023/10/11 03:18:39;;;;;;;30.65;11.98;;;;;;;;;;5078594;28;20079;-68
2023/10/11 03:21:32;;;;;;;26.65;11.43;;;;;;;;;;5078417;28;20477;-69
2023/10/11 03:24:04;;;;;;;24.38;11.07;;;;;;;;;;5077922;28;20031;-69
2023/10/11 03:28:57;;;;;;;30.25;12.90;;;;;;;;;;5078330;28;20118;-68
2023/10/11 03:31:31;;;;;;;32.35;11.70;;;;;;;;;;5078162;28;20093;-68
2023/10/11 03:33:58;;;;;;;27.77;13.95;;;;;;;;;;5078798;28;20115;-68
2023/10/11 03:36:43;;;;;;;28.10;12.05;;;;;;;;;;5077807;28;20599;-68
2023/10/11 03:39:10;;;;;;;30.20;11.85;;;;;;;;;;5077388;28;20972;-69
2023/10/11 03:41:45;;;;;;;25.23;11.65;;;;;;;;;;5077237;28;20572;-69
2023/10/11 03:44:17;;;;;;;22.83;10.40;;;;;;;;;;5078972;28;20052;-69
2023/10/11 03:46:47;;;;;;;26.58;11.73;;;;;;;;;;5078276;28;20058;-68
2023/10/11 03:51:48;;;;;;;27.63;11.70;;;;;;;;;;5078551;28;20510;-68
2023/10/11 03:54:23;;;;;;;34.60;11.90;;;;;;;;;;5077729;28;20078;-68
2023/10/11 03:56:53;;;;;;;26.08;11.63;;;;;;;;;;5078156;28;20027;-69
2023/10/11 03:59:26;;;;;;;24.77;10.75;;;;;;;;;;5077497;28;20069;-68
2023/10/11 04:01:53;;;;;;;30.50;10.63;;;;;;;;;;5078119;28;20215;-68
2023/10/11 04:04:23;;;;;;;26.35;10.98;;;;;;;;;;5078333;28;20158;-68
2023/10/11 04:06:57;;;;;;;25.75;11.07;;;;;;;;;;5077931;28;20732;-68
2023/10/11 04:09:37;;;;;;;26.77;10.38;;;;;;;;;;5078318;28;20032;-69
2023/10/11 04:12:04;;;;;;;24.85;9.82;;;;;;;;;;5078975;28;20147;-69
2023/10/11 04:14:39;;;;;;;29.00;10.90;;;;;;;;;;5064982;28;20027;-68
2023/10/11 04:19:47;;;;;;;22.00;9.75;;;;;;;;;;5081744;28;20055;-68
2023/10/11 04:22:16;;;;;;;27.50;11.75;;;;;;;;;;5081708;28;20146;-69
2023/10/11 04:24:43;;;;;;;27.63;10.43;;;;;;;;;;5081950;28;20027;-68
2023/10/11 04:29:50;;;;;;;28.27;10.77;;;;;;;;;;5083027;28;21262;-68
2023/10/11 04:32:35;;;;;;;25.63;10.88;;;;;;;;;;5081002;28;21932;-69
2023/10/11 04:35:01;;;;;;;29.55;10.82;;;;;;;;;;5081211;28;20020;-68
2023/10/11 04:37:27;;;;;;;27.27;10.80;;;;;;;;;;5080430;28;20062;-68
2023/10/11 04:40:14;;;;;;;27.17;10.85;;;;;;;;;;5080456;28;20034;-69
2023/10/11 04:42:40;;;;;;;25.88;11.07;;;;;;;;;;5081294;28;20028;-68
2023/10/11 04:45:06;;;;;;;27.17;9.63;;;;;;;;;;5081383;28;20038;-69
2023/10/11 04:47:50;;;;;;;28.67;11.20;;;;;;;;;;5081138;28;20406;-68
2023/10/11 04:50:16;;;;;;;24.88;9.85;;;;;;;;;;5080841;28;20032;-68
2023/10/11 04:52:48;;;;;;;25.77;10.57;;;;;;;;;;5081567;28;20028;-68
2023/10/11 04:55:15;;;;;;;26.05;9.77;;;;;;;;;;5081802;28;20577;-68
2023/10/11 04:58:04;;;;;;;31.52;9.98;;;;;;;;;;5081536;28;20044;-68
2023/10/11 05:00:43;;;;;;;23.55;8.93;;;;;;;;;;5080728;28;20028;-68
2023/10/11 05:03:10;;;;;;;28.85;11.00;;;;;;;;;;5080052;28;20032;-68
2023/10/11 05:05:41;;;;;;;26.60;9.40;;;;;;;;;;5080782;28;20096;-68
2023/10/11 05:08:20;;;;;;;24.65;9.40;;;;;;;;;;5061320;28;20089;-68
2023/10/11 05:10:50;;;;;;;25.95;9.85;;;;;;;;;;5080033;28;20475;-68
2023/10/11 05:13:19;;;;;;;26.20;9.95;;;;;;;;;;5080083;28;20691;-68
2023/10/11 05:15:48;;;;;;;28.40;10.00;;;;;;;;;;5080568;28;20062;-68
2023/10/11 05:18:24;;;;;;;18.80;9.85;;;;;;;;;;5079827;28;21443;-69
2023/10/11 05:21:03;;;;;;;27.63;9.43;;;;;;;;;;5077557;28;20050;-69
2023/10/11 05:23:41;;;;;;;27.17;9.43;;;;;;;;;;5078532;28;20039;-68
2023/10/11 05:26:36;;;;;;;25.15;10.63;;;;;;;;;;5078512;28;20150;-68
2023/10/11 05:29:09;;;;;;;24.63;10.65;;;;;;;;;;5079175;28;20043;-68
2023/10/11 05:31:44;;;;;;;27.83;10.82;;;;;;;;;;5079017;28;20491;-68
2023/10/11 05:50:50;;;;;;;25.83;9.45;;;;;;;;;;5079786;28;20174;-68
2023/10/11 05:50:54;;;;;;;26.30;10.10;;;;;;;;;;5081077;28;21794;-68
2023/10/11 05:53:21;;;;;;;26.63;10.57;;;;;;;;;;5062229;28;20036;-68
2023/10/11 05:55:51;;;;;;;24.70;10.82;;;;;;;;;;5079980;28;20036;-68
2023/10/11 05:58:18;;;;;;;24.00;10.18;;;;;;;;;;5079366;28;21881;-68
2023/10/11 06:00:49;;;;;;;30.20;10.93;;;;;;;;;;5078123;28;20105;-68
2023/10/11 06:03:15;;;;;;;23.48;10.50;;;;;;;;;;5079296;28;20031;-68
2023/10/11 06:05:41;;;;;;;30.58;11.07;;;;;;;;;;5078319;28;20021;-68
2023/10/11 06:08:15;;;;;;;22.80;10.35;;;;;;;;;;5078168;28;20043;-68
2023/10/11 06:10:41;;;;;;;24.05;11.02;;;;;;;;;;5078679;28;20138;-68
2023/10/11 06:13:16;;;;;;;27.50;10.07;;;;;;;;;;5079242;28;20027;-69
2023/10/11 06:15:58;;;;;;;28.08;11.07;;;;;;;;;;5078591;28;20032;-68
2023/10/11 06:18:38;;;;;;;25.90;11.38;;;;;;;;;;5079006;28;20028;-69
2023/10/11 06:21:18;;;;;;;22.58;10.55;;;;;;;;;;5079219;28;20040;-68
2023/10/11 06:23:45;;;;;;;26.25;11.30;;;;;;;;;;5068378;28;20039;-68
2023/10/11 06:26:52;;;;;;;29.23;11.27;;;;;;;;;;5070789;28;20390;-68
2023/10/11 06:29:22;;;;;;;32.83;11.57;;;;;;;;;;5070114;28;20052;-69
2023/10/11 06:31:49;;;;;;;21.33;10.10;;;;;;;;;;5071201;28;20063;-69
2023/10/11 06:36:48;;;;;;;26.50;10.05;;;;;;;;;;5070909;28;21041;-69
2023/10/11 06:39:33;;;;;;;24.05;10.02;;;;;;;;;;5059197;28;20156;-69
2023/10/11 06:42:06;;;;;;;24.48;9.65;;;;;;;;;;5070351;28;20043;-69
2023/10/11 06:44:33;;;;;;;23.05;10.50;;;;;;;;;;5070661;28;20061;-69
2023/10/11 06:47:03;;;;;;;23.40;10.38;;;;;;;;;;5071374;27;20036;-69
2023/10/11 06:49:32;;;;;;;25.20;9.20;;;;;;;;;;5071154;28;20587;-69
2023/10/11 06:52:01;;;;;;;25.90;9.80;;;;;;;;;;5070558;28;20042;-70
2023/10/11 06:54:32;;;;;;;25.13;10.23;;;;;;;;;;5071395;28;20038;-69
2023/10/11 06:56:58;;;;;;;20.52;9.02;;;;;;;;;;5070720;28;20040;-69
2023/10/11 06:59:27;;;;;;;26.65;9.43;;;;;;;;;;5069620;28;20076;-69
2023/10/11 07:01:54;;;;;;;21.30;9.52;;;;;;;;;;5071232;28;20043;-69
2023/10/11 07:04:20;;;;;;;29.65;10.98;;;;;;;;;;5070116;28;20494;-69
2023/10/11 07:06:48;;;;;;;18.88;9.27;;;;;;;;;;5070221;28;20036;-69
2023/10/11 07:09:22;;;;;;;23.48;8.55;;;;;;;;;;5069436;28;20103;-69
2023/10/11 07:14:35;;;;;;;30.10;10.73;;;;;;;;;;5070444;28;20035;-69
2023/10/11 07:17:01;;;;;;;21.13;9.25;;;;;;;;;;5070740;28;20028;-69
2023/10/11 07:19:27;;;;;;;22.67;10.27;;;;;;;;;;5069575;28;20054;-69
2023/10/11 07:21:53;;;;;;;23.42;9.63;;;;;;;;;;5071495;28;20112;-69
2023/10/11 07:24:19;;;;;;;21.75;9.70;;;;;;;;;;5070200;28;20028;-68
2023/10/11 07:29:13;;;;;;;21.40;9.80;;;;;;;;;;5071542;28;20176;-69
2023/10/11 07:31:48;;;;;;;25.08;9.55;;;;;;;;;;5070110;28;20072;-69
2023/10/11 07:34:17;;;;;;;20.55;9.05;;;;;;;;;;5069862;28;20059;-69
2023/10/11 07:36:44;;;;;;;24.63;10.10;;;;;;;;;;5070030;28;20057;-69
2023/10/11 07:39:20;;;;;;;24.08;9.38;;;;;;;;;;5068284;28;20031;-69
2023/10/11 07:41:52;;;;;;;22.70;10.23;;;;;;;;;;5068939;28;20035;-69
2023/10/11 07:44:19;;;;;;;23.23;9.93;;;;;;;;;;5048215;28;20031;-69
2023/10/11 07:46:54;;;;;;;26.63;10.18;;;;;;;;;;5068790;28;20081;-68
2023/10/11 07:49:23;;;;;;;29.10;10.35;;;;;;;;;;5072231;28;20523;-68
2023/10/11 07:51:53;;;;;;;28.20;11.10;;;;;;;;;;5076914;28;20024;-69
2023/10/11 07:54:19;;;;;;;25.58;10.32;;;;;;;;;;5077300;28;21664;-69
2023/10/11 07:56:52;;;;;;;25.60;9.60;;;;;;;;;;5075544;28;20221;-69
2023/10/11 07:59:21;;;;;;;26.38;10.50;;;;;;;;;;5069507;28;20028;-69
2023/10/11 08:01:47;;;;;;;25.02;10.18;;;;;;;;;;5068421;28;20068;-69
2023/10/11 08:04:18;;;;;;;24.02;10.68;;;;;;;;;;5067548;28;20542;-69
2023/10/11 08:06:48;;;;;;;20.52;9.63;;;;;;;;;;5047988;28;20043;-68
2023/10/11 08:09:21;;;;;;;26.67;10.77;;;;;;;;;;5068189;28;20028;-69
2023/10/11 08:11:52;;;;;;;22.05;9.48;;;;;;;;;;5068726;28;20028;-68
2023/10/11 08:14:22;;;;;;;22.30;10.20;;;;;;;;;;5065987;28;20063;-69
2023/10/11 08:16:51;;;;;;;16.65;8.70;;;;;;;;;;5068361;28;20057;-69
2023/10/11 08:19:17;;;;;;;21.35;9.07;;;;;;;;;;5068589;28;20515;-69
2023/10/11 08:21:57;;;;;;;21.77;8.43;;;;;;;;;;5069551;28;20383;-69
2023/10/11 08:24:30;;;;;;;22.80;10.25;;;;;;;;;;5069331;28;20644;-69
2023/10/11 08:27:06;;;;;;;25.85;9.27;;;;;;;;;;5050238;28;20275;-68
2023/10/11 08:29:33;;;;;;;22.98;9.00;;;;;;;;;;5068925;28;20036;-69
2023/10/11 08:31:59;;;;;;;19.60;9.07;;;;;;;;;;5069803;28;20051;-69
2023/10/11 08:34:26;;;;;;;22.27;9.15;;;;;;;;;;5071342;28;20092;-69
2023/10/11 08:36:56;;;;;;;17.05;8.60;;;;;;;;;;5068958;28;20040;-68
2023/10/11 08:39:35;;;;;;;22.98;10.00;;;;;;;;;;5068288;28;20042;-69
2023/10/11 08:42:11;;;;;;;20.33;9.07;;;;;;;;;;5069146;28;20135;-69
2023/10/11 08:44:40;;;;;;;24.65;8.65;;;;;;;;;;5068749;28;20110;-69
2023/10/11 08:47:06;;;;;;;23.98;9.82;;;;;;;;;;5068169;28;20036;-68
2023/10/11 08:49:41;;;;;;;24.42;9.73;;;;;;;;;;5049981;28;20067;-68
2023/10/11 08:52:11;;;;;;;19.27;9.85;;;;;;;;;;5069059;28;20035;-69
2023/10/11 08:54:37;;;;;;;18.13;8.15;;;;;;;;;;5068024;28;20078;-69
2023/10/11 08:57:04;;;;;;;20.15;9.98;;;;;;;;;;5068481;28;20027;-69
2023/10/11 08:59:39;;;;;;;15.85;7.97;;;;;;;;;;5071488;28;20032;-68
2023/10/11 09:02:08;;;;;;;18.50;7.88;;;;;;;;;;5054632;28;20039;-69
2023/10/11 09:04:35;;;;;;;14.73;7.25;;;;;;;;;;5071593;28;20166;-68
2023/10/11 09:07:02;;;;;;;15.15;6.82;;;;;;;;;;5071952;28;20122;-68
2023/10/11 09:09:40;;;;;;;13.80;6.85;;;;;;;;;;5072339;28;20071;-69
2023/10/11 09:12:25;;;;;;;13.93;6.15;;;;;;;;;;5070673;27;21103;-68
2023/10/11 09:14:58;;;;;;;12.18;6.07;;;;;;;;;;5071159;28;20028;-69
2023/10/11 09:17:25;;;;;;;13.05;6.50;;;;;;;;;;5071574;28;20031;-69
2023/10/11 09:19:53;;;;;;;12.35;6.03;;;;;;;;;;5072513;28;20048;-68
2023/10/11 09:22:19;;;;;;;11.85;5.80;;;;;;;;;;5071747;28;20031;-69
2023/10/11 09:24:45;;;;;;;14.98;6.25;;;;;;;;;;5071154;28;20589;-68
2023/10/11 09:29:42;;;;;;;16.33;6.43;;;;;;;;;;5069654;28;20044;-69
2023/10/11 09:32:09;;;;;;;16.00;6.80;;;;;;;;;;5071968;28;20132;-69
2023/10/11 09:34:41;;;;;;;15.73;6.55;;;;;;;;;;5071716;28;20047;-69
2023/10/11 09:37:11;;;;;;;10.20;5.80;;;;;;;;;;5070991;27;20036;-69
2023/10/11 09:39:37;;;;;;;14.73;6.93;;;;;;;;;;5070860;28;20147;-68
2023/10/11 09:42:03;;;;;;;14.20;6.78;;;;;;;;;;5070795;28;20073;-69
2023/10/11 09:44:37;;;;;;;14.48;6.38;;;;;;;;;;5070258;28;20028;-69
2023/10/11 09:47:03;;;;;;;16.88;7.10;;;;;;;;;;5070853;27;20473;-69
2023/10/11 09:49:30;;;;;;;12.95;6.40;;;;;;;;;;5070453;28;20039;-69
2023/10/11 09:51:59;;;;;;;15.55;6.63;;;;;;;;;;5070902;28;20032;-68
2023/10/11 09:54:27;;;;;;;14.10;6.72;;;;;;;;;;5070745;28;20136;-69
2023/10/11 09:57:08;;;;;;;15.38;6.65;;;;;;;;;;5070497;28;20110;-68
2023/10/11 09:59:53;;;;;;;15.52;7.18;;;;;;;;;;5068725;28;20102;-68
2023/10/11 10:02:35;;;;;;;17.27;6.22;;;;;;;;;;5067482;28;20115;-68
2023/10/11 10:05:05;;;;;;;13.97;6.63;;;;;;;;;;5067882;28;20442;-68
2023/10/11 10:10:07;;;;;;;18.23;6.03;;;;;;;;;;5067501;28;20063;-68
2023/10/11 10:12:40;;;;;;;16.48;6.38;;;;;;;;;;5069177;28;20031;-69
2023/10/11 10:15:08;;;;;;;14.40;6.15;;;;;;;;;;5070398;28;20039;-69
2023/10/11 10:17:34;;;;;;;17.60;6.03;;;;;;;;;;5069344;28;20052;-69
2023/10/11 10:20:24;;;;;;;15.82;7.03;;;;;;;;;;5062392;28;20566;-68
2023/10/11 10:23:08;;;;;;;15.05;6.22;;;;;;;;;;5052417;28;20597;-69
2023/10/11 10:25:35;;;;;;;15.80;5.75;;;;;;;;;;5061507;28;20110;-68
2023/10/11 10:28:01;;;;;;;13.43;6.03;;;;;;;;;;5062771;28;20038;-69
2023/10/11 10:30:27;;;;;;;13.30;5.80;;;;;;;;;;5062465;28;20036;-69
2023/10/11 10:33:12;;;;;;;10.32;5.50;;;;;;;;;;5061617;28;20093;-69
2023/10/11 10:35:38;;;;;;;16.30;5.65;;;;;;;;;;5062690;28;20134;-69
2023/10/11 10:38:09;;;;;;;18.88;6.05;;;;;;;;;;5063089;28;20049;-68
2023/10/11 10:40:37;;;;;;;13.93;5.45;;;;;;;;;;5062513;27;20065;-68
2023/10/11 10:43:14;;;;;;;13.95;6.13;;;;;;;;;;5062559;28;20055;-68
2023/10/11 10:45:40;;;;;;;16.85;5.47;;;;;;;;;;5063106;28;20115;-68
2023/10/11 10:48:16;;;;;;;8.65;4.60;;;;;;;;;;5062862;28;20031;-67
2023/10/11 10:50:48;;;;;;;13.50;5.10;;;;;;;;;;5062650;28;20067;-68
2023/10/11 10:53:15;;;;;;;9.90;5.05;;;;;;;;;;5064848;28;20073;-67
2023/10/11 10:55:44;;;;;;;10.82;5.05;;;;;;;;;;5062135;27;20039;-67
2023/10/11 10:58:17;;;;;;;11.32;4.43;;;;;;;;;;5062364;28;20118;-68
2023/10/11 11:00:44;;;;;;;10.85;4.20;;;;;;;;;;5059306;28;20064;-62
2023/10/11 11:03:17;;;;;;;13.88;4.68;;;;;;;;;;5040865;28;20031;-62
2023/10/11 11:05:55;;;;;;;12.88;4.93;;;;;;;;;;5061444;28;20031;-62
2023/10/11 11:08:27;;;;;;;16.95;4.50;;;;;;;;;;5060738;28;20195;-63
2023/10/11 11:11:19;;;;;;;10.02;4.30;;;;;;;;;;5058749;28;20491;-62
2023/10/11 11:13:49;;;;;;;8.57;3.80;;;;;;;;;;5060024;28;20024;-63
2023/10/11 11:16:19;;;;;;;8.70;3.90;;;;;;;;;;5058725;28;20097;-63
2023/10/11 11:18:47;;;;;;;12.32;4.72;;;;;;;;;;5057990;28;20414;-63
2023/10/11 11:21:26;;;;;;;10.15;4.30;;;;;;;;;;5058615;28;20148;-63
2023/10/11 11:23:52;;;;;;;9.35;3.78;;;;;;;;;;5058574;28;20027;-64
2023/10/11 11:26:21;;;;;;;12.32;3.95;;;;;;;;;;5046021;28;20089;-63
2023/10/11 11:28:47;;;;;;;7.78;3.55;;;;;;;;;;5056603;28;20158;-63
2023/10/11 11:31:13;;;;;;;10.45;3.50;;;;;;;;;;5057569;28;20032;-63
2023/10/11 11:36:40;;;;;;;13.73;3.55;;;;;;;;;;5033307;28;21772;-62
2023/10/11 11:39:26;;;;;;;10.43;3.55;;;;;;;;;;5057027;28;20054;-62
2023/10/11 11:41:53;;;;;;;11.23;3.67;;;;;;;;;;5058095;28;20042;-63
2023/10/11 11:44:22;;;;;;;7.65;3.38;;;;;;;;;;5057800;28;20036;-62
2023/10/11 11:46:52;;;;;;;9.65;3.47;;;;;;;;;;5055305;28;20032;-62
2023/10/11 11:49:22;;;;;;;8.85;3.50;;;;;;;;;;5058881;28;20162;-68
2023/10/11 11:51:52;;;;;;;11.32;4.00;;;;;;;;;;5067752;28;20031;-67
2023/10/11 11:54:19;;;;;;;13.40;3.75;;;;;;;;;;5070458;28;21124;-68
2023/10/11 11:56:45;;;;;;;9.48;3.67;;;;;;;;;;5077345;28;20388;-68
2023/10/11 11:59:17;;;;;;;10.25;3.65;;;;;;;;;;5077648;28;20024;-68
2023/10/11 12:01:49;;;;;;;7.40;3.10;;;;;;;;;;5076987;28;20025;-68
2023/10/11 12:04:19;;;;;;;9.68;3.70;;;;;;;;;;5077455;28;20114;-68
2023/10/11 12:06:46;;;;;;;9.65;3.95;;;;;;;;;;5077823;28;20123;-69
2023/10/11 12:09:20;;;;;;;10.80;3.05;;;;;;;;;;5077813;28;20032;-68
2023/10/11 12:11:49;;;;;;;8.13;3.00;;;;;;;;;;5078129;28;20147;-68
2023/10/11 12:14:16;;;;;;;7.40;3.13;;;;;;;;;;5077534;28;20032;-68
2023/10/11 12:16:42;;;;;;;8.50;3.13;;;;;;;;;;5077906;28;20035;-68
2023/10/11 12:19:13;;;;;;;11.77;3.90;;;;;;;;;;5077023;28;20039;-68
2023/10/11 12:21:40;;;;;;;9.23;3.08;;;;;;;;;;5076121;28;20034;-68
2023/10/11 12:24:10;;;;;;;12.48;3.78;;;;;;;;;;5055369;28;20581;-67
2023/10/11 12:26:40;;;;;;;8.43;3.47;;;;;;;;;;5077412;28;20581;-68
2023/10/11 12:29:08;;;;;;;15.40;3.72;;;;;;;;;;5076392;28;21103;-68
2023/10/11 12:31:38;;;;;;;12.20;3.67;;;;;;;;;;5074854;28;20526;-68
2023/10/11 12:34:04;;;;;;;12.13;3.65;;;;;;;;;;5079092;28;21227;-68
2023/10/11 12:36:30;;;;;;;10.93;3.70;;;;;;;;;;5080875;28;20031;-68
2023/10/11 12:38:57;;;;;;;10.85;3.17;;;;;;;;;;5081367;28;20172;-68
2023/10/11 12:41:23;;;;;;;20.02;5.07;;;;;;;;;;5081283;28;20032;-68
2023/10/11 12:43:49;;;;;;;10.10;3.08;;;;;;;;;;5081644;28;20043;-68
2023/10/11 12:46:17;;;;;;;8.63;2.88;;;;;;;;;;5080713;28;20097;-68
2023/10/11 12:48:43;;;;;;;8.90;3.35;;;;;;;;;;5081767;28;20443;-68
2023/10/11 12:51:10;;;;;;;9.00;2.92;;;;;;;;;;5078355;28;20040;-68
2023/10/11 12:53:36;;;;;;;8.75;3.25;;;;;;;;;;5080307;28;20187;-68
2023/10/11 12:56:02;;;;;;;8.20;2.97;;;;;;;;;;5077875;28;20067;-69
2023/10/11 12:58:38;;;;;;;10.20;3.28;;;;;;;;;;5080446;28;20178;-68
2023/10/11 13:01:11;;;;;;;10.30;3.50;;;;;;;;;;5060485;28;20094;-68
2023/10/11 13:03:40;;;;;;;10.43;3.20;;;;;;;;;;5080108;28;20498;-68
2023/10/11 13:06:10;;;;;;;8.50;2.83;;;;;;;;;;5080893;27;20036;-68
2023/10/11 13:08:39;;;;;;;11.52;3.45;;;;;;;;;;5078315;28;20109;-68
2023/10/11 13:11:10;;;;;;;12.75;3.70;;;;;;;;;;5079953;28;20043;-68
2023/10/11 13:13:37;;;;;;;11.15;3.28;;;;;;;;;;5078662;28;20039;-68
2023/10/11 13:16:03;;;;;;;8.70;3.20;;;;;;;;;;5079823;28;20032;-69
2023/10/11 13:18:33;;;;;;;12.77;4.20;;;;;;;;;;5078842;28;20044;-68
2023/10/11 13:20:59;;;;;;;8.93;3.20;;;;;;;;;;5079247;28;20028;-68
2023/10/11 13:23:29;;;;;;;11.02;3.63;;;;;;;;;;5079874;28;20494;-69
2023/10/11 13:25:59;;;;;;;9.18;3.60;;;;;;;;;;5079746;28;20423;-68
2023/10/11 13:28:26;;;;;;;10.32;3.53;;;;;;;;;;5079746;28;20901;-67
2023/10/11 13:30:53;;;;;;;17.05;3.78;;;;;;;;;;5061874;28;20036;-62
2023/10/11 13:33:20;;;;;;;10.20;3.80;;;;;;;;;;5079518;28;20043;-62
2023/10/11 13:35:47;;;;;;;10.60;3.65;;;;;;;;;;5079606;28;20035;-62
2023/10/11 13:38:17;;;;;;;10.48;3.67;;;;;;;;;;5078938;28;20039;-63
2023/10/11 13:40:44;;;;;;;13.23;3.92;;;;;;;;;;5078084;27;20103;-63
2023/10/11 13:43:12;;;;;;;10.57;3.45;;;;;;;;;;5078535;28;21030;-62
2023/10/11 13:45:40;;;;;;;10.20;4.38;;;;;;;;;;5058448;28;20039;-63
2023/10/11 13:48:11;;;;;;;11.10;3.85;;;;;;;;;;5077415;28;20036;-62
2023/10/11 13:50:39;;;;;;;13.25;4.57;;;;;;;;;;5059765;28;20065;-62
2023/10/11 13:53:05;;;;;;;14.30;3.88;;;;;;;;;;5076776;28;20046;-63
2023/10/11 13:55:40;;;;;;;15.88;5.40;;;;;;;;;;5079228;28;20463;-63
2023/10/11 13:58:10;;;;;;;10.00;3.63;;;;;;;;;;5078906;28;20027;-63
2023/10/11 14:06:01;;;;;;;11.63;4.45;;;;;;;;;;5079192;28;20122;-62
2023/10/11 14:08:39;;;;;;;12.10;4.35;;;;;;;;;;5067650;28;20040;-63
2023/10/11 14:11:05;;;;;;;12.35;3.92;;;;;;;;;;5079238;28;20471;-63
2023/10/11 14:13:31;;;;;;;9.57;4.03;;;;;;;;;;5078648;28;20765;-62
2023/10/11 14:15:57;;;;;;;9.32;3.75;;;;;;;;;;5079804;28;20070;-62
2023/10/11 14:18:27;;;;;;;11.32;4.25;;;;;;;;;;5059306;28;20051;-62
2023/10/11 14:20:56;;;;;;;7.47;3.10;;;;;;;;;;5078739;27;20631;-62
2023/10/11 14:23:27;;;;;;;8.27;2.78;;;;;;;;;;5079043;28;20038;-63
2023/10/11 14:25:53;;;;;;;13.20;4.35;;;;;;;;;;5078800;27;20458;-62
2023/10/11 14:28:20;;;;;;;10.95;4.15;;;;;;;;;;5077847;28;20108;-62
2023/10/11 14:30:49;;;;;;;11.02;3.75;;;;;;;;;;5059205;28;20162;-63
2023/10/11 14:33:18;;;;;;;13.70;3.92;;;;;;;;;;5078818;28;20039;-62
2023/10/11 14:35:47;;;;;;;8.60;3.35;;;;;;;;;;5078771;27;20546;-62
2023/10/11 14:38:14;;;;;;;11.23;3.28;;;;;;;;;;5058043;28;20035;-62
2023/10/11 14:40:44;;;;;;;9.63;3.35;;;;;;;;;;5057332;28;20577;-62
2023/10/11 14:43:14;;;;;;;8.50;3.28;;;;;;;;;;5076387;28;20157;-63
2023/10/11 14:45:41;;;;;;;11.73;3.20;;;;;;;;;;5072112;28;20510;-62
2023/10/11 14:48:10;;;;;;;14.07;4.05;;;;;;;;;;5076260;28;20951;-62
2023/10/11 14:50:36;;;;;;;13.90;3.90;;;;;;;;;;5059237;28;20031;-63
2023/10/11 14:53:03;;;;;;;12.93;4.13;;;;;;;;;;5075596;28;20093;-62
2023/10/11 14:55:32;;;;;;;12.55;3.60;;;;;;;;;;5077558;28;20035;-68
2023/10/11 14:57:58;;;;;;;8.32;3.53;;;;;;;;;;5074942;28;21476;-68
2023/10/11 15:00:25;;;;;;;11.30;3.75;;;;;;;;;;5057126;28;20028;-68
2023/10/11 15:02:52;;;;;;;11.45;3.33;;;;;;;;;;5077184;27;20738;-68
2023/10/11 15:05:19;;;;;;;12.32;4.40;;;;;;;;;;5076847;28;21083;-67
2023/10/11 15:07:46;;;;;;;10.35;3.40;;;;;;;;;;5077646;27;20887;-68
2023/10/11 15:10:12;;;;;;;12.00;3.20;;;;;;;;;;5073128;28;20043;-68
2023/10/11 15:12:41;;;;;;;10.40;3.55;;;;;;;;;;5077179;27;20032;-68
2023/10/11 15:15:10;;;;;;;10.05;3.40;;;;;;;;;;5076059;28;20023;-67
2023/10/11 15:17:37;;;;;;;12.10;3.65;;;;;;;;;;5077437;28;20027;-68
2023/10/11 15:20:03;;;;;;;12.32;3.90;;;;;;;;;;5076653;28;20043;-68
2023/10/11 15:22:33;;;;;;;11.55;3.50;;;;;;;;;;5077074;28;20051;-68
2023/10/11 15:24:59;;;;;;;12.32;3.75;;;;;;;;;;5077377;28;20073;-68
2023/10/11 15:27:25;;;;;;;11.68;3.03;;;;;;;;;;5077432;28;20039;-67
2023/10/11 15:29:52;;;;;;;13.32;4.85;;;;;;;;;;5058257;28;20143;-68
2023/10/11 15:32:18;;;;;;;11.85;3.63;;;;;;;;;;5058391;28;20037;-68